Terminal Aerodrome Forecast
Issued by NWS Blacksburg, VA

Home | Current Version | Previous Version | Text Only | Print | Product List | Glossary On
Versions: 1 2 3 4 5 6 7 8 9 10 11 12 13 14 15 16 17 18 19 20 21 22 23 24 25 26 27 28 29 30
753
FTUS41 KRNK 261138
TAFLYH
TAF
KLYH 261138Z 2612/2712 00000KT P6SM BKN100 OVC250
     FM261400 21006KT P6SM OVC100
     FM261900 21007KT P6SM BKN060 OVC250
     FM270200 00000KT P6SM SCT070 BKN100 BKN250=

USA.gov is the U.S. government's official web portal to all federal, state and local government web resources and services.